Lamont, Iowa
Current Conditions -  °F | °C
As of 2:35 PM on Thursday 29 Jan 2015 (Local Time) from KOLZ Reporting Station
Overcast Overcast  
Wind Chill: 19°   Ceiling: 2300
Heat Index: 32°   Visibility: 10mi
Dew Point: 25°   Wind: 25mph
Humidity: 75%   Direction: 340°NNW
Pressure: 30.19"   Gusts: 35mph
Location:  42.6°N, 91.64°W
Report Text: KOLZ 292035Z AUTO 34022G30KT 10SM OVC023 00/M04 A3019 RMK AO2
Loading
Personal Weather Stations






























Interactive Weather Map New forecast layout! Learn more

10-Day Weather Forecast

Advertisements
Track Severe Weather on mobile